Terminal Aerodrome Forecast
Issued by NWS

Current Version | Previous Version | Text Only | Print | Product List | Glossary On
Versions: 1 2 3 4 5 6 7 8 9 10 11 12 13 14 15 16 17 18 19 20 21 22 23 24 25 26 27 28 29 30 31 32 33 34 35 36 37 38 39 40 41 42 43 44 45 46 47 48 49 50
000
FTUS43 KMKX 222036 AAB
TAFENW
TAF AMD
KENW 222036Z 2221/2318 10012KT 1 1/2SM -RASN BR OVC006
     FM230100 12013G22KT 3SM -RA BR OVC005
     FM230600 11013G20KT 2SM RA BR OVC003
     FM231100 14011KT 2SM RA BR OVC003
     FM231200 14010KT 2SM BR OVC003
     FM231400 17009KT 2SM BR OVC003
     FM231600 18009KT 6SM BR OVC008=

USA.gov is the U.S. government's official web portal to all federal, state and local government web resources and services.